Hafer, Illinois
Current Conditions -  °F | °C
As of 9:53 AM on Monday 26 Jan 2015 (Local Time) from KMWA Reporting Station
Broken Clouds Broken Clouds  
Wind Chill: 22°   Ceiling: 1700
Heat Index: 32°   Visibility: 20mi
Dew Point: 23°   Wind: 14mph
Humidity: 69%   Direction: 290°WNW
Pressure: 30.09"   Gusts: NA
Location:  37.7927°N, 89.0997°W
Report Text: KMWA 261553Z 29012KT 20SM BKN017 BKN250 00/M05 A3009
Loading
Personal Weather Stations






























Interactive Weather Map New forecast layout! Learn more

10-Day Weather Forecast

Advertisements
Track Severe Weather on mobile